Terminal Aerodrome Forecast
Issued by NWS North Platte, NE

Home | Current Version | Previous Version | Graphics & Text | Print | Product List | Glossary On
Versions: 1 2 3 4 5 6 7 8 9 10 11 12 13
000
FTUS43 KLBF 201128
TAFVTN
TAF
KVTN 201128Z 2012/2112 20012KT P6SM SCT250
     FM201500 19018G27KT P6SM BKN250
     FM202300 18014G19KT P6SM BKN250
     FM210200 19013KT P6SM BKN250
     FM210800 29014G21KT P6SM VCSH BKN100 BKN200=

USA.gov is the U.S. government's official web portal to all federal, state and local government web resources and services.